Time;durP1;ratioP1;P1;durP2;ratioP2;P2;SDS_P1;SDS_P2;PMS_P1;PMS_P2;Temp;Humidity;BMP_temperature;BMP_pressure;BME280_temperature;BME280_humidity;BME280_pressure;Samples;Min_cycle;Max_cycle;Signal;HPM_P1;HPM_P2
2022/07/28 00:02:10;;;;;;;3.50;0.90;;;19.40;34.40;;;;;;5031499;28;20436;-71
2022/07/28 00:04:56;;;;;;;1.93;0.90;;;19.40;33.90;;;;;;5033750;28;20443;-73
2022/07/28 00:07:44;;;;;;;6.20;1.03;;;19.40;33.90;;;;;;5031768;28;20825;-71
2022/07/28 00:10:31;;;;;;;2.17;0.97;;;19.40;33.80;;;;;;5030662;28;20444;-72
2022/07/28 00:13:16;;;;;;;6.20;1.13;;;19.40;33.80;;;;;;5028528;28;20468;-72
2022/07/28 00:16:02;;;;;;;3.53;1.00;;;19.40;33.90;;;;;;5035089;28;20435;-71
2022/07/28 00:18:48;;;;;;;7.30;1.03;;;19.40;33.90;;;;;;5039245;28;20450;-71
2022/07/28 00:21:33;;;;;;;3.30;1.13;;;19.40;33.90;;;;;;5034611;28;20434;-73
2022/07/28 00:24:22;;;;;;;3.50;1.20;;;19.40;33.80;;;;;;5032875;28;21012;-72
2022/07/28 00:27:08;;;;;;;2.07;0.70;;;19.50;33.80;;;;;;5031568;28;20452;-71
2022/07/28 00:29:53;;;;;;;5.57;1.17;;;19.40;33.50;;;;;;5030126;28;20452;-72
2022/07/28 00:32:40;;;;;;;3.70;1.10;;;19.40;33.70;;;;;;5027636;28;20464;-72
2022/07/28 00:35:25;;;;;;;2.20;1.00;;;19.40;33.90;;;;;;5033156;28;20529;-71
2022/07/28 00:38:11;;;;;;;1.67;0.80;;;19.40;33.60;;;;;;5031270;28;20808;-71
2022/07/28 00:41:10;;;;;;;3.80;1.00;;;19.40;33.40;;;;;;5031927;28;20460;-72
2022/07/28 00:43:56;;;;;;;5.00;0.83;;;19.40;33.80;;;;;;5034191;28;20464;-72
2022/07/28 00:46:42;;;;;;;2.33;1.00;;;19.30;33.60;;;;;;5032579;28;20484;-72
2022/07/28 00:49:28;;;;;;;2.20;1.10;;;19.30;33.50;;;;;;5030978;28;20490;-72
2022/07/28 00:52:16;;;;;;;2.20;0.80;;;19.30;33.50;;;;;;5030288;28;20570;-72
2022/07/28 00:55:04;;;;;;;2.83;1.00;;;19.40;33.70;;;;;;5035207;28;20509;-72
2022/07/28 00:57:51;;;;;;;2.67;0.90;;;19.40;33.80;;;;;;5031359;28;20495;-72
2022/07/28 01:00:36;;;;;;;2.20;1.20;;;19.20;35.00;;;;;;5032517;28;20809;-73
2022/07/28 01:03:23;;;;;;;2.73;1.00;;;19.10;35.60;;;;;;5030831;28;20519;-71
2022/07/28 01:06:18;;;;;;;4.23;1.00;;;19.10;34.90;;;;;;5027331;28;20452;-71
2022/07/28 01:09:11;;;;;;;3.27;1.37;;;18.90;35.00;;;;;;5028889;28;20520;-72
2022/07/28 01:12:04;;;;;;;10.83;1.13;;;19.00;36.60;;;;;;5023865;28;20460;-72
2022/07/28 01:14:58;;;;;;;3.40;0.90;;;18.90;36.80;;;;;;5029676;28;20479;-72
2022/07/28 01:17:49;;;;;;;4.73;0.90;;;18.70;38.20;;;;;;5037024;28;20487;-71
2022/07/28 01:20:39;;;;;;;11.13;1.50;;;18.40;38.70;;;;;;5026831;28;20456;-72
2022/07/28 01:23:53;;;;;;;2.00;1.00;;;18.30;38.80;;;;;;5038031;28;20452;-71
2022/07/28 01:26:51;;;;;;;5.20;0.90;;;18.40;38.40;;;;;;5030192;28;20472;-71
2022/07/28 01:29:57;;;;;;;6.30;1.10;;;18.40;38.70;;;;;;5030519;28;20510;-72
2022/07/28 01:32:50;;;;;;;3.73;0.80;;;18.30;40.60;;;;;;5025736;28;20550;-71
2022/07/28 01:35:45;;;;;;;5.20;1.00;;;18.20;41.80;;;;;;5028217;28;20974;-72
2022/07/28 01:38:34;;;;;;;4.03;1.10;;;18.20;41.30;;;;;;5025403;28;20443;-72
2022/07/28 01:41:22;;;;;;;4.13;0.90;;;18.10;42.40;;;;;;5024744;28;20464;-71
2022/07/28 01:44:13;;;;;;;2.60;1.00;;;18.00;41.20;;;;;;5030332;28;20437;-71
2022/07/28 01:47:00;;;;;;;3.43;0.90;;;18.10;41.00;;;;;;5030953;28;21057;-72
2022/07/28 01:49:50;;;;;;;2.67;0.87;;;18.20;41.40;;;;;;5031965;28;20440;-71
2022/07/28 01:52:38;;;;;;;2.13;1.10;;;18.10;41.70;;;;;;5029385;28;20535;-72
2022/07/28 01:55:26;;;;;;;3.63;1.00;;;18.20;42.00;;;;;;5031931;28;20994;-72
2022/07/28 01:58:13;;;;;;;2.83;0.70;;;18.20;41.00;;;;;;5031454;28;20420;-71
2022/07/28 02:01:00;;;;;;;3.23;0.93;;;18.10;39.90;;;;;;5022730;28;20529;-71
2022/07/28 02:03:48;;;;;;;4.20;1.10;;;18.20;39.60;;;;;;5031094;28;20790;-72
2022/07/28 02:06:35;;;;;;;3.97;0.90;;;18.30;38.70;;;;;;5024768;28;20445;-72
2022/07/28 02:09:22;;;;;;;3.00;1.43;;;18.20;39.30;;;;;;5027083;28;20542;-72
2022/07/28 02:12:12;;;;;;;4.70;0.80;;;18.30;37.80;;;;;;5024311;28;20546;-72
2022/07/28 02:14:59;;;;;;;2.30;1.07;;;18.40;37.90;;;;;;5033826;28;20464;-72
2022/07/28 02:17:47;;;;;;;2.47;1.20;;;18.40;37.90;;;;;;5028711;28;20452;-72
2022/07/28 02:20:33;;;;;;;3.83;1.40;;;18.40;37.90;;;;;;5026571;28;20536;-71
2022/07/28 02:23:24;;;;;;;8.10;1.20;;;18.50;37.10;;;;;;5028317;28;20941;-71
2022/07/28 02:26:12;;;;;;;3.83;1.10;;;18.60;36.70;;;;;;5028768;28;20440;-71
2022/07/28 02:29:00;;;;;;;3.43;1.00;;;18.70;36.00;;;;;;5034618;28;20532;-71
2022/07/28 02:31:51;;;;;;;1.73;0.93;;;18.80;36.20;;;;;;5035992;28;20467;-71
2022/07/28 02:34:38;;;;;;;2.93;1.20;;;18.80;36.00;;;;;;5028453;28;21040;-72
2022/07/28 02:37:24;;;;;;;2.30;1.00;;;18.80;35.80;;;;;;5028639;28;20777;-71
2022/07/28 02:40:16;;;;;;;2.67;1.20;;;18.80;36.10;;;;;;5027267;28;20491;-71
2022/07/28 02:43:03;;;;;;;7.43;0.97;;;18.70;35.90;;;;;;5031497;28;20849;-71
2022/07/28 02:45:53;;;;;;;2.40;0.80;;;18.80;35.60;;;;;;5030019;28;20471;-71
2022/07/28 02:48:41;;;;;;;2.53;1.10;;;18.70;36.00;;;;;;5026777;28;20457;-72
2022/07/28 02:51:29;;;;;;;4.43;1.40;;;18.70;35.80;;;;;;5027831;28;20482;-72
2022/07/28 02:54:17;;;;;;;4.53;1.30;;;18.70;35.90;;;;;;5034087;28;20499;-72
2022/07/28 02:57:06;;;;;;;3.70;1.00;;;18.70;36.20;;;;;;5032246;28;20663;-72
2022/07/28 02:59:54;;;;;;;2.60;1.17;;;18.70;36.20;;;;;;5026059;28;20527;-72
2022/07/28 03:02:42;;;;;;;2.23;1.20;;;18.60;36.00;;;;;;5034077;28;20480;-71
2022/07/28 03:05:28;;;;;;;3.73;1.20;;;18.60;36.00;;;;;;5026510;28;20447;-71
2022/07/28 03:08:15;;;;;;;4.80;1.20;;;18.60;35.90;;;;;;5039323;28;20423;-72
2022/07/28 03:11:08;;;;;;;1.90;1.07;;;18.60;36.10;;;;;;5027613;28;20445;-72
2022/07/28 03:13:55;;;;;;;6.00;1.40;;;18.60;36.10;;;;;;5031292;28;20567;-71
2022/07/28 03:16:41;;;;;;;7.40;1.00;;;18.60;36.10;;;;;;5031904;28;20420;-71
2022/07/28 03:19:27;;;;;;;4.10;1.00;;;18.60;35.60;;;;;;5027018;28;20812;-72
2022/07/28 03:22:13;;;;;;;3.00;1.00;;;18.60;35.60;;;;;;5034225;28;20592;-72
2022/07/28 03:25:00;;;;;;;4.00;1.13;;;18.70;35.70;;;;;;5029520;28;20482;-71
2022/07/28 03:27:49;;;;;;;4.47;1.40;;;18.70;35.60;;;;;;5024882;28;20616;-71
2022/07/28 03:30:41;;;;;;;1.90;0.83;;;18.60;36.00;;;;;;5027220;28;20444;-72
2022/07/28 03:33:28;;;;;;;2.57;1.10;;;18.60;35.90;;;;;;5029874;28;20444;-71
2022/07/28 03:36:16;;;;;;;3.40;0.97;;;18.60;35.70;;;;;;5030048;28;20528;-71
2022/07/28 03:39:04;;;;;;;2.93;1.13;;;18.60;35.80;;;;;;5027678;28;20587;-72
2022/07/28 03:41:52;;;;;;;2.83;1.20;;;18.60;35.90;;;;;;5041584;28;20483;-71
2022/07/28 03:44:38;;;;;;;4.43;1.00;;;18.60;35.70;;;;;;5034276;28;20502;-71
2022/07/28 03:47:25;;;;;;;4.53;1.50;;;18.60;36.30;;;;;;5034540;28;20446;-72
2022/07/28 03:50:11;;;;;;;4.27;1.30;;;18.50;35.90;;;;;;5033213;28;20839;-72
2022/07/28 03:52:58;;;;;;;2.70;1.00;;;18.40;37.00;;;;;;5036926;28;20583;-72
2022/07/28 03:55:45;;;;;;;13.90;1.53;;;18.50;37.20;;;;;;5039291;28;20442;-72
2022/07/28 03:58:31;;;;;;;3.53;1.03;;;18.40;37.40;;;;;;5031243;28;20950;-72
2022/07/28 04:01:17;;;;;;;5.23;1.50;;;18.40;37.90;;;;;;5038089;28;20543;-72
2022/07/28 04:04:04;;;;;;;5.50;1.20;;;18.40;37.90;;;;;;5033034;28;20579;-71
2022/07/28 04:06:50;;;;;;;4.47;1.37;;;18.30;37.70;;;;;;5027995;28;20439;-73
2022/07/28 04:09:36;;;;;;;3.20;1.47;;;18.30;37.70;;;;;;5030295;28;20446;-72
2022/07/28 04:12:21;;;;;;;4.23;1.30;;;18.40;38.20;;;;;;5031947;28;20464;-72
2022/07/28 04:15:13;;;;;;;2.90;1.00;;;18.20;39.40;;;;;;5035715;28;20467;-71
2022/07/28 04:17:59;;;;;;;8.70;1.13;;;18.10;40.50;;;;;;5031142;28;20522;-72
2022/07/28 04:20:46;;;;;;;3.03;1.20;;;18.10;41.10;;;;;;5037070;28;20903;-73
2022/07/28 04:23:32;;;;;;;4.17;1.10;;;18.00;41.50;;;;;;5034821;28;20550;-71
2022/07/28 04:26:18;;;;;;;4.80;1.53;;;17.90;41.90;;;;;;5032360;28;20456;-71
2022/07/28 04:29:03;;;;;;;5.53;1.13;;;18.00;43.00;;;;;;5031368;28;20442;-71
2022/07/28 04:31:49;;;;;;;1.93;1.20;;;18.00;44.00;;;;;;5040317;28;20471;-71
2022/07/28 04:34:35;;;;;;;2.53;1.03;;;17.90;43.90;;;;;;5027725;28;20471;-72
2022/07/28 04:37:21;;;;;;;3.63;1.33;;;17.80;44.00;;;;;;5031941;28;20579;-71
2022/07/28 04:40:09;;;;;;;6.40;2.10;;;17.90;44.40;;;;;;5037046;28;20443;-72
2022/07/28 04:42:55;;;;;;;3.13;1.33;;;17.90;45.60;;;;;;5032635;28;20895;-71
2022/07/28 04:45:41;;;;;;;5.43;1.50;;;17.80;46.00;;;;;;5031738;28;20441;-71
2022/07/28 04:48:27;;;;;;;2.50;0.87;;;17.80;45.90;;;;;;5027807;28;20453;-72
2022/07/28 04:51:12;;;;;;;2.07;0.93;;;17.90;48.20;;;;;;5035196;28;20546;-71
2022/07/28 04:53:59;;;;;;;3.03;1.63;;;17.90;48.40;;;;;;5031789;28;20523;-72
2022/07/28 04:56:45;;;;;;;4.07;1.33;;;17.90;47.00;;;;;;5029128;28;20443;-72
2022/07/28 04:59:31;;;;;;;3.10;1.40;;;18.10;45.20;;;;;;5033608;28;20575;-72
2022/07/28 05:02:17;;;;;;;2.50;1.30;;;18.10;45.30;;;;;;5028297;28;20971;-71
2022/07/28 05:05:02;;;;;;;5.30;1.23;;;18.20;45.90;;;;;;5035192;28;20587;-72
2022/07/28 05:07:48;;;;;;;3.63;1.30;;;18.30;46.00;;;;;;5033837;28;21090;-72
2022/07/28 05:10:35;;;;;;;7.20;1.50;;;18.30;43.40;;;;;;5034154;28;20812;-72
2022/07/28 05:13:21;;;;;;;5.10;1.13;;;18.40;44.30;;;;;;5031281;28;20522;-72
2022/07/28 05:16:07;;;;;;;7.80;1.73;;;18.50;44.70;;;;;;5036031;28;20980;-72
2022/07/28 05:18:52;;;;;;;11.33;1.40;;;18.60;42.90;;;;;;5030605;28;20957;-72
2022/07/28 05:21:38;;;;;;;5.80;1.33;;;18.80;42.30;;;;;;5035653;28;21013;-72
2022/07/28 05:24:24;;;;;;;3.83;1.03;;;18.90;44.70;;;;;;5032679;28;20965;-72
2022/07/28 05:27:11;;;;;;;2.60;1.37;;;19.00;43.40;;;;;;5029576;28;20444;-72
2022/07/28 05:29:57;;;;;;;6.07;1.50;;;19.10;42.40;;;;;;5034258;28;20418;-72
2022/07/28 05:32:44;;;;;;;6.97;2.23;;;19.10;42.80;;;;;;5028067;28;20662;-71
2022/07/28 05:35:29;;;;;;;3.30;1.33;;;19.20;42.80;;;;;;5033624;28;20691;-71
2022/07/28 05:38:15;;;;;;;2.23;1.30;;;19.20;44.10;;;;;;5030856;28;20452;-73
2022/07/28 05:41:01;;;;;;;6.17;1.33;;;19.30;44.00;;;;;;5036836;28;20499;-72
2022/07/28 05:43:47;;;;;;;4.43;1.83;;;19.30;44.70;;;;;;5029766;28;20448;-71
2022/07/28 05:46:33;;;;;;;4.87;1.63;;;19.30;44.00;;;;;;5031281;28;20445;-72
2022/07/28 05:49:20;;;;;;;2.30;1.20;;;19.50;44.80;;;;;;5031016;28;20526;-72
2022/07/28 05:52:06;;;;;;;4.90;1.80;;;19.60;43.90;;;;;;5035168;28;20984;-72
2022/07/28 05:54:52;;;;;;;5.90;1.60;;;19.60;43.60;;;;;;5028826;28;20468;-71
2022/07/28 05:57:38;;;;;;;3.97;1.50;;;19.60;43.10;;;;;;5024278;28;20579;-72
2022/07/28 06:00:25;;;;;;;4.40;1.70;;;19.70;42.90;;;;;;5031502;28;20814;-72
2022/07/28 06:03:11;;;;;;;2.80;1.27;;;19.70;43.90;;;;;;5028728;28;20518;-72
2022/07/28 06:05:56;;;;;;;2.50;1.30;;;19.70;43.30;;;;;;5026519;28;20543;-72
2022/07/28 06:08:42;;;;;;;4.33;1.80;;;19.70;43.20;;;;;;5028579;28;20526;-73
2022/07/28 06:11:27;;;;;;;4.00;1.63;;;19.70;44.40;;;;;;5029833;28;20828;-71
2022/07/28 06:14:13;;;;;;;2.93;1.50;;;19.70;45.40;;;;;;5031514;28;20542;-72
2022/07/28 06:17:00;;;;;;;3.10;1.43;;;19.70;45.20;;;;;;5029061;28;21063;-72
2022/07/28 06:19:45;;;;;;;3.47;1.67;;;19.80;45.70;;;;;;5039912;28;20456;-71
2022/07/28 06:22:41;;;;;;;4.27;1.50;;;19.80;45.10;;;;;;5033944;28;20557;-71
2022/07/28 06:25:28;;;;;;;3.17;1.57;;;19.90;44.60;;;;;;5029795;28;20513;-72
2022/07/28 06:28:13;;;;;;;3.10;1.73;;;19.90;44.90;;;;;;5030934;28;20539;-72
2022/07/28 06:31:00;;;;;;;6.00;2.00;;;20.00;43.80;;;;;;5026971;28;20586;-72
2022/07/28 06:33:47;;;;;;;4.30;1.60;;;20.00;44.40;;;;;;5032037;28;20448;-71
2022/07/28 06:36:33;;;;;;;4.77;2.00;;;20.10;45.00;;;;;;5031327;28;20594;-72
2022/07/28 06:39:18;;;;;;;4.77;1.60;;;20.10;45.90;;;;;;5034003;28;20595;-72
2022/07/28 06:42:04;;;;;;;5.50;2.27;;;20.20;45.40;;;;;;5030987;28;20475;-71
2022/07/28 06:44:51;;;;;;;4.17;1.70;;;20.40;44.30;;;;;;5031969;28;20449;-72
2022/07/28 06:47:38;;;;;;;8.43;1.90;;;20.50;44.50;;;;;;5029334;28;20952;-72
2022/07/28 06:50:25;;;;;;;10.07;2.10;;;20.70;44.10;;;;;;5028627;28;20445;-71
2022/07/28 06:53:11;;;;;;;4.43;1.87;;;20.80;43.60;;;;;;5030877;28;20444;-72
2022/07/28 06:55:57;;;;;;;4.13;1.80;;;20.90;43.20;;;;;;5029147;28;20476;-72
2022/07/28 06:58:42;;;;;;;7.73;2.33;;;21.00;43.50;;;;;;5032089;28;20567;-71
2022/07/28 07:01:28;;;;;;;5.70;2.30;;;21.00;43.10;;;;;;5023960;28;20950;-72
2022/07/28 07:04:13;;;;;;;4.13;2.30;;;21.10;43.20;;;;;;5028364;28;20491;-71
2022/07/28 07:07:00;;;;;;;8.07;2.73;;;21.10;43.30;;;;;;5023177;28;20443;-72
2022/07/28 07:09:46;;;;;;;5.17;1.97;;;21.20;43.30;;;;;;5032612;28;20447;-72
2022/07/28 07:12:33;;;;;;;6.10;1.83;;;21.30;42.20;;;;;;5029546;28;20441;-71
2022/07/28 07:15:19;;;;;;;3.63;1.50;;;21.30;42.10;;;;;;5027346;28;20463;-71
2022/07/28 07:18:05;;;;;;;6.63;1.87;;;21.40;42.00;;;;;;5030535;28;20746;-72
2022/07/28 07:20:51;;;;;;;4.00;1.63;;;21.40;42.20;;;;;;5029804;28;20468;-72
2022/07/28 07:23:38;;;;;;;5.67;2.00;;;21.40;43.00;;;;;;5032005;28;20523;-72
2022/07/28 07:26:24;;;;;;;7.30;2.40;;;21.40;43.30;;;;;;5027754;28;21091;-71
2022/07/28 07:29:10;;;;;;;3.60;1.77;;;21.50;42.90;;;;;;5032049;28;20443;-71
2022/07/28 07:31:57;;;;;;;5.90;1.87;;;21.50;41.20;;;;;;5029806;28;20464;-72
2022/07/28 07:34:43;;;;;;;3.43;1.83;;;21.70;41.80;;;;;;5030369;28;20467;-71
2022/07/28 07:37:31;;;;;;;3.50;1.90;;;21.90;41.60;;;;;;5032529;28;21012;-71
2022/07/28 07:40:18;;;;;;;4.03;1.53;;;22.00;41.70;;;;;;5037908;28;20432;-71
2022/07/28 07:43:04;;;;;;;8.73;2.43;;;22.00;40.30;;;;;;5031665;28;20602;-71
2022/07/28 07:45:50;;;;;;;4.20;2.10;;;21.90;41.60;;;;;;5028704;28;20449;-72
2022/07/28 07:48:36;;;;;;;7.50;1.83;;;22.10;41.20;;;;;;5039955;28;20564;-72
2022/07/28 07:51:21;;;;;;;4.27;1.80;;;22.10;40.50;;;;;;5031728;28;20598;-73
2022/07/28 07:54:07;;;;;;;3.80;2.00;;;22.30;41.10;;;;;;5032031;28;20482;-72
2022/07/28 07:56:54;;;;;;;3.40;1.87;;;22.40;39.40;;;;;;5026968;28;20611;-72
2022/07/28 07:59:39;;;;;;;4.50;1.93;;;22.50;41.40;;;;;;5029135;28;21001;-72
2022/07/28 08:02:25;;;;;;;4.20;1.93;;;22.50;39.70;;;;;;5031135;28;20987;-72
2022/07/28 08:05:11;;;;;;;4.13;2.03;;;22.70;39.50;;;;;;5032408;28;21139;-72
2022/07/28 08:07:57;;;;;;;4.27;1.90;;;22.70;38.70;;;;;;5034272;28;20961;-72
2022/07/28 08:10:42;;;;;;;4.77;2.17;;;22.70;39.80;;;;;;5030747;28;20491;-71
2022/07/28 08:13:29;;;;;;;7.57;1.90;;;22.70;39.30;;;;;;5033017;28;20518;-72
2022/07/28 08:16:15;;;;;;;5.20;1.90;;;22.70;41.50;;;;;;5034914;28;20544;-72
2022/07/28 08:19:00;;;;;;;6.80;2.07;;;22.80;38.40;;;;;;5034325;28;20457;-72
2022/07/28 08:21:46;;;;;;;7.10;2.30;;;23.00;40.30;;;;;;5031749;28;20879;-73
2022/07/28 08:24:32;;;;;;;3.53;1.90;;;23.10;40.50;;;;;;5035845;28;20490;-72
2022/07/28 08:27:18;;;;;;;6.47;2.20;;;23.20;39.30;;;;;;5031191;28;20495;-73
2022/07/28 08:30:05;;;;;;;5.93;2.43;;;23.20;38.30;;;;;;5034890;28;20450;-72
2022/07/28 08:32:51;;;;;;;3.67;2.20;;;23.20;37.60;;;;;;5033308;28;20530;-70
2022/07/28 08:35:36;;;;;;;4.60;2.40;;;23.30;38.20;;;;;;5027201;28;20469;-70
2022/07/28 08:38:22;;;;;;;4.23;2.33;;;23.40;39.00;;;;;;5036071;28;20571;-70
2022/07/28 08:41:14;;;;;;;8.67;2.20;;;23.40;37.30;;;;;;5033079;28;20961;-70
2022/07/28 08:44:02;;;;;;;4.57;2.20;;;23.50;37.50;;;;;;5034367;28;20602;-69
2022/07/28 08:46:49;;;;;;;4.53;2.60;;;23.50;37.80;;;;;;5025985;28;20591;-69
2022/07/28 08:49:40;;;;;;;7.77;2.37;;;23.50;37.60;;;;;;5030236;28;20452;-70
2022/07/28 08:52:29;;;;;;;5.90;2.00;;;23.50;37.40;;;;;;5025603;28;20874;-69
2022/07/28 08:55:16;;;;;;;4.87;2.33;;;23.50;38.00;;;;;;5030515;28;20549;-70
2022/07/28 08:58:02;;;;;;;5.93;2.30;;;23.50;37.10;;;;;;5030832;28;20453;-69
2022/07/28 09:00:49;;;;;;;4.07;1.90;;;23.50;37.30;;;;;;5036705;28;20436;-70
2022/07/28 09:03:38;;;;;;;3.67;2.00;;;23.60;37.90;;;;;;5031797;28;20921;-70
2022/07/28 09:06:24;;;;;;;3.47;2.17;;;23.70;36.60;;;;;;5030358;28;20486;-70
2022/07/28 09:09:10;;;;;;;10.33;2.20;;;23.80;36.60;;;;;;5027515;28;20456;-70
2022/07/28 09:11:56;;;;;;;6.30;2.17;;;23.90;38.30;;;;;;5029792;28;20488;-70
2022/07/28 09:14:42;;;;;;;6.57;2.30;;;24.00;35.70;;;;;;5026468;28;20508;-70
2022/07/28 09:17:28;;;;;;;5.10;2.17;;;24.00;36.20;;;;;;5030109;28;20468;-70
2022/07/28 09:20:17;;;;;;;5.40;2.17;;;24.10;37.70;;;;;;5032962;28;20440;-70
2022/07/28 09:23:05;;;;;;;5.17;2.33;;;24.30;36.60;;;;;;5030160;28;20535;-70
2022/07/28 09:25:51;;;;;;;4.30;2.00;;;24.40;36.10;;;;;;5033319;28;20461;-71
2022/07/28 09:28:49;;;;;;;6.13;2.03;;;24.50;34.90;;;;;;5028280;28;20444;-70
2022/07/28 09:31:34;;;;;;;3.73;2.00;;;24.60;33.40;;;;;;5028186;28;20830;-70
2022/07/28 09:34:20;;;;;;;5.10;1.80;;;24.70;32.10;;;;;;5025181;28;20550;-69
2022/07/28 09:37:17;;;;;;;4.37;2.40;;;24.80;34.10;;;;;;5027107;28;20476;-71
2022/07/28 09:40:11;;;;;;;3.80;2.27;;;24.90;33.80;;;;;;5027673;28;20448;-72
2022/07/28 09:42:57;;;;;;;5.00;2.27;;;25.00;33.20;;;;;;5029420;28;20483;-72
2022/07/28 09:45:43;;;;;;;6.90;3.40;;;25.10;33.30;;;;;;5031376;28;20564;-71
2022/07/28 09:48:28;;;;;;;6.30;2.30;;;25.00;31.80;;;;;;5034499;28;20428;-71
2022/07/28 09:51:16;;;;;;;8.57;2.47;;;24.90;32.50;;;;;;5036436;28;20448;-71
2022/07/28 09:54:11;;;;;;;5.27;2.57;;;24.80;30.40;;;;;;5031347;28;20457;-72
2022/07/28 09:56:57;;;;;;;4.13;2.03;;;24.80;32.00;;;;;;5031732;28;20477;-71
2022/07/28 09:59:43;;;;;;;3.60;2.27;;;25.00;34.00;;;;;;5025984;28;20423;-72
2022/07/28 10:02:31;;;;;;;3.50;2.17;;;25.10;30.60;;;;;;5031182;28;20498;-71
2022/07/28 10:05:18;;;;;;;5.47;3.00;;;25.30;32.40;;;;;;5025025;28;20482;-71
2022/07/28 10:08:03;;;;;;;7.77;4.73;;;25.40;31.20;;;;;;5031736;28;20802;-70
2022/07/28 10:11:01;;;;;;;5.07;2.80;;;25.50;32.10;;;;;;5033286;28;20432;-72
2022/07/28 10:13:56;;;;;;;7.73;2.57;;;25.70;31.10;;;;;;5024770;28;20562;-72
2022/07/28 10:16:45;;;;;;;4.73;2.40;;;25.80;31.20;;;;;;5022476;28;20483;-71
2022/07/28 10:19:31;;;;;;;8.47;2.23;;;26.10;30.00;;;;;;5028641;28;20953;-72
2022/07/28 10:22:18;;;;;;;5.13;2.40;;;26.10;28.60;;;;;;5027888;28;21056;-71
2022/07/28 10:25:08;;;;;;;4.30;2.27;;;26.20;29.00;;;;;;5022680;28;20448;-71
2022/07/28 10:27:58;;;;;;;4.73;2.20;;;26.30;28.80;;;;;;5024928;28;20440;-69
2022/07/28 10:30:47;;;;;;;6.50;2.50;;;26.30;27.80;;;;;;5029577;28;20440;-70
2022/07/28 10:33:33;;;;;;;4.47;2.87;;;26.40;28.50;;;;;;5026844;28;20473;-69
2022/07/28 10:36:24;;;;;;;7.07;2.60;;;26.30;28.90;;;;;;5024427;28;20988;-70
2022/07/28 10:39:15;;;;;;;6.40;2.80;;;26.20;28.50;;;;;;5023359;28;20465;-70
2022/07/28 10:42:01;;;;;;;8.10;2.20;;;26.20;29.60;;;;;;5038188;22;20512;-70
2022/07/28 10:44:49;;;;;;;5.30;2.63;;;26.40;30.00;;;;;;5006165;28;20569;-70
2022/07/28 10:47:35;;;;;;;5.23;2.57;;;26.50;29.60;;;;;;5016284;28;20437;-70
2022/07/28 10:50:21;;;;;;;3.53;2.20;;;26.60;28.50;;;;;;5014662;28;20444;-70
2022/07/28 10:53:11;;;;;;;5.97;2.77;;;26.70;28.70;;;;;;5019140;28;20464;-71
2022/07/28 10:56:03;;;;;;;5.37;2.60;;;26.70;28.60;;;;;;5008772;28;20441;-70
2022/07/28 10:58:55;;;;;;;7.33;2.60;;;26.80;28.60;;;;;;5013695;28;20488;-70
2022/07/28 11:01:43;;;;;;;3.80;2.47;;;26.80;28.30;;;;;;5013994;28;20480;-71
2022/07/28 11:04:54;;;;;;;5.17;3.33;;;26.90;28.10;;;;;;5006477;28;20444;-71
2022/07/28 11:07:39;;;;;;;5.67;3.73;;;27.00;27.50;;;;;;5015243;28;20454;-71
2022/07/28 11:10:25;;;;;;;4.13;2.70;;;27.00;27.90;;;;;;5013271;28;20537;-70
2022/07/28 11:13:28;;;;;;;3.77;2.17;;;27.00;28.10;;;;;;5010783;28;20468;-69
2022/07/28 11:16:21;;;;;;;4.50;2.40;;;27.00;28.50;;;;;;5015620;28;20832;-70
2022/07/28 11:19:10;;;;;;;3.70;2.40;;;27.10;27.40;;;;;;5012774;28;20528;-70
2022/07/28 11:22:29;;;;;;;6.20;2.30;;;27.20;28.00;;;;;;5012164;28;20457;-70
2022/07/28 11:25:16;;;;;;;4.20;2.17;;;27.20;26.50;;;;;;5010920;28;20450;-71
2022/07/28 11:28:03;;;;;;;5.83;1.80;;;27.10;26.60;;;;;;5012990;28;20441;-70
2022/07/28 11:30:54;;;;;;;6.50;2.40;;;27.10;28.30;;;;;;5015660;28;20445;-70
2022/07/28 11:33:56;;;;;;;4.37;2.23;;;27.10;27.50;;;;;;5007465;28;20516;-70
2022/07/28 11:37:05;;;;;;;7.53;1.70;;;27.10;26.60;;;;;;5011825;28;20611;-71
2022/07/28 11:39:51;;;;;;;4.00;2.83;;;27.10;26.60;;;;;;5010676;28;20445;-70
2022/07/28 11:42:37;;;;;;;5.63;1.60;;;27.10;26.40;;;;;;5013655;28;20485;-71
2022/07/28 11:45:24;;;;;;;10.70;2.10;;;26.90;26.90;;;;;;5009986;28;20520;-70
2022/07/28 11:48:13;;;;;;;8.03;2.30;;;26.90;27.50;;;;;;5013546;28;20566;-71
2022/07/28 11:51:09;;;;;;;6.43;2.40;;;26.90;27.30;;;;;;5019378;28;20504;-70
2022/07/28 11:53:56;;;;;;;12.70;2.20;;;27.10;26.50;;;;;;5007676;28;20439;-71
2022/07/28 11:56:42;;;;;;;2.80;1.50;;;27.20;27.20;;;;;;5008724;28;20825;-71
2022/07/28 11:59:28;;;;;;;12.53;2.07;;;27.50;27.40;;;;;;5008996;28;20449;-71
2022/07/28 12:02:18;;;;;;;5.17;2.00;;;27.80;25.90;;;;;;5001698;28;20461;-69
2022/07/28 12:05:07;;;;;;;5.93;2.37;;;28.00;25.10;;;;;;5015175;28;20426;-70
2022/07/28 12:07:53;;;;;;;7.70;1.93;;;28.20;25.20;;;;;;5014129;28;20488;-70
2022/07/28 12:10:40;;;;;;;4.47;1.80;;;28.30;25.60;;;;;;5013183;28;20433;-69
2022/07/28 12:13:27;;;;;;;7.77;1.90;;;28.40;25.50;;;;;;5001319;28;20561;-70
2022/07/28 12:16:13;;;;;;;4.23;1.87;;;28.50;24.30;;;;;;5012763;28;20484;-70
2022/07/28 12:19:00;;;;;;;3.27;1.80;;;28.50;23.80;;;;;;5018389;28;20458;-69
2022/07/28 12:21:47;;;;;;;3.10;1.80;;;28.50;23.80;;;;;;5008826;28;20816;-71
2022/07/28 12:24:34;;;;;;;4.20;2.20;;;28.50;25.60;;;;;;5013693;28;20469;-69
2022/07/28 12:27:28;;;;;;;9.50;2.20;;;28.60;24.80;;;;;;5014288;28;20500;-70
2022/07/28 12:30:21;;;;;;;4.43;2.07;;;28.70;25.20;;;;;;5011168;28;20441;-70
2022/07/28 12:33:17;;;;;;;8.77;2.50;;;28.80;25.00;;;;;;5008290;28;20851;-70
2022/07/28 12:36:04;;;;;;;11.00;2.30;;;28.80;23.60;;;;;;5013327;28;20446;-70
2022/07/28 12:38:50;;;;;;;6.50;2.13;;;28.80;24.30;;;;;;5017827;28;20444;-71
2022/07/28 12:41:37;;;;;;;4.97;2.63;;;28.70;23.50;;;;;;5012528;28;21018;-70
2022/07/28 12:44:36;;;;;;;5.20;2.50;;;28.70;24.40;;;;;;5008257;28;21033;-70
2022/07/28 12:47:26;;;;;;;3.50;2.10;;;28.80;23.10;;;;;;5019055;28;20429;-70
2022/07/28 12:50:14;;;;;;;3.30;2.30;;;28.90;23.80;;;;;;5020286;28;20433;-70
2022/07/28 12:53:04;;;;;;;3.10;1.90;;;29.00;23.60;;;;;;5015873;28;20461;-69
2022/07/28 12:56:00;;;;;;;8.90;2.50;;;29.10;23.60;;;;;;5014554;28;20486;-70
2022/07/28 12:58:46;;;;;;;4.47;2.33;;;29.10;22.00;;;;;;5012318;28;20437;-70
2022/07/28 13:01:46;;;;;;;7.70;2.10;;;29.00;24.00;;;;;;5014003;28;20531;-71
2022/07/28 13:04:44;;;;;;;5.27;2.00;;;29.10;23.80;;;;;;5006300;28;20974;-70
2022/07/28 13:07:31;;;;;;;4.20;2.13;;;29.20;21.60;;;;;;5013429;28;20445;-70
2022/07/28 13:10:17;;;;;;;4.67;2.07;;;29.40;21.80;;;;;;5009975;28;20424;-70
2022/07/28 13:13:04;;;;;;;4.63;1.97;;;29.40;22.50;;;;;;5012143;28;20469;-70
2022/07/28 13:16:12;;;;;;;3.83;2.07;;;29.50;22.30;;;;;;5011712;28;20420;-70
2022/07/28 13:19:01;;;;;;;5.93;2.20;;;29.60;21.90;;;;;;5016087;28;20795;-70
2022/07/28 13:21:50;;;;;;;5.03;2.00;;;29.60;21.90;;;;;;5009733;28;20445;-71
2022/07/28 13:24:35;;;;;;;12.13;2.60;;;29.50;21.80;;;;;;5004340;28;20573;-70
2022/07/28 13:27:21;;;;;;;9.70;2.60;;;29.50;22.10;;;;;;5007712;28;20420;-71
2022/07/28 13:30:08;;;;;;;7.20;2.50;;;29.50;22.20;;;;;;5012644;28;20897;-71
2022/07/28 13:32:55;;;;;;;3.50;2.13;;;29.50;22.90;;;;;;5008390;28;20954;-70
2022/07/28 13:35:43;;;;;;;4.07;2.60;;;29.60;21.90;;;;;;5010918;28;20556;-70
2022/07/28 13:38:28;;;;;;;6.77;2.10;;;29.60;22.00;;;;;;5013988;28;20484;-70
2022/07/28 13:41:14;;;;;;;4.80;2.60;;;29.50;22.30;;;;;;5006615;28;20445;-71
2022/07/28 13:44:00;;;;;;;5.33;2.30;;;29.30;23.40;;;;;;5005657;28;20595;-70
2022/07/28 13:46:45;;;;;;;4.57;2.33;;;29.20;22.20;;;;;;5006219;28;20422;-70
2022/07/28 13:49:33;;;;;;;6.10;2.30;;;29.10;21.60;;;;;;5002699;28;20565;-70
2022/07/28 13:52:20;;;;;;;5.30;1.70;;;28.90;22.60;;;;;;5008191;28;20574;-70
2022/07/28 13:55:06;;;;;;;5.07;2.47;;;28.90;24.10;;;;;;5010971;28;20420;-70
2022/07/28 13:57:52;;;;;;;4.00;2.20;;;29.10;23.70;;;;;;5007065;28;20685;-70
2022/07/28 14:00:38;;;;;;;4.67;2.40;;;29.40;22.40;;;;;;5009567;28;20425;-70
2022/07/28 14:03:24;;;;;;;8.23;2.73;;;29.70;22.00;;;;;;5003447;28;20461;-70
2022/07/28 14:06:11;;;;;;;7.50;2.60;;;29.70;22.00;;;;;;5011731;28;20506;-70
2022/07/28 14:08:58;;;;;;;5.53;2.20;;;29.70;22.00;;;;;;5009766;28;20577;-71
2022/07/28 14:11:43;;;;;;;6.63;2.70;;;29.40;22.50;;;;;;5007602;28;20946;-70
2022/07/28 14:14:29;;;;;;;5.77;2.50;;;29.30;23.20;;;;;;5007392;28;20425;-69
2022/07/28 14:17:15;;;;;;;12.83;2.43;;;29.10;21.60;;;;;;5011374;28;20853;-70
2022/07/28 14:20:00;;;;;;;7.17;2.00;;;28.90;22.00;;;;;;5009380;28;20453;-70
2022/07/28 14:22:46;;;;;;;4.20;2.23;;;28.60;22.30;;;;;;5009118;28;20932;-70
2022/07/28 14:25:33;;;;;;;7.97;2.77;;;28.50;23.50;;;;;;5011288;28;20429;-69
2022/07/28 14:28:19;;;;;;;6.03;2.10;;;28.40;24.30;;;;;;5011835;28;20940;-70
2022/07/28 14:31:04;;;;;;;4.53;2.60;;;28.30;24.00;;;;;;5009913;28;20802;-70
2022/07/28 14:33:50;;;;;;;8.37;3.17;;;28.20;24.10;;;;;;5008434;28;20449;-70